Historique des mesures à Cassis (13260), France
Quotidien Résumé Juin 26, 2017 Unités:  US    Métrique   Métrique/US
« Précédent (Jour)
Suivant (Jour) »
Quotidien Hebdomadaire Mensuel Annuel Période au choix
  Maximum: Minimum: Moyenne:
Température: 32 °F 73.2 °F 76.6 °F
Point de rosée: 32 °F 58.8 °F 64.6 °F
Humidité: Humidity % 60 % 63 %
Vitesse du vent: WindSpeedKMH mph 0.0 mph 2.4 mph
Rafales: WindSpeedGustKMH mph - -
Vent:- - SE
Pression: 0 in 29.7 in -
Précipitations: 0 in    
Historical Graphs
 
 
Mesures pour : Juin 26, 2017
Heure Temperature Point de rosée Pression Vent Vitesse du vent Rafales Humidité Pluie (par heure) Conditions
32 °F 32 °F 0 in Calm     Humidity % 0 in SoftwareType W/m2
00:10 75.7 °F 64 °F 29.8 in WSW 6.4 mph 8.2 mph 67 % 0 in open2300-1.11 W/m2
01:11 75.7 °F 62.8 °F 29.8 in WNW 10.1 mph 12.6 mph 64 % 0 in open2300-1.11 W/m2
02:10 75 °F 62.4 °F 29.8 in North 4.0 mph 10.5 mph 65 % 0 in open2300-1.11 W/m2
03:10 73.9 °F 60.4 °F 29.8 in Calm   1.8 mph 63 % 0 in open2300-1.11 W/m2
04:11 73.9 °F 61.3 °F 29.7 in Calm     65 % 0 in open2300-1.11 W/m2
05:10 73.8 °F 60.3 °F 29.7 in NNE 1.8 mph 1.8 mph 63 % 0 in open2300-1.11 W/m2
06:11 73.2 °F 58.8 °F 29.7 in Calm   2.6 mph 61 % 0 in open2300-1.11 W/m2
07:10 73.8 °F 60.3 °F 29.8 in Calm   1.8 mph 63 % 0 in open2300-1.11 W/m2
08:11 75.6 °F 62.1 °F 29.8 in SE 1.1 mph 3.5 mph 63 % 0 in open2300-1.11 W/m2
09:10 76.8 °F 63.7 °F 29.8 in SW 6.1 mph 7.6 mph 64 % 0 in open2300-1.11 W/m2
10:10 79.3 °F 67.8 °F 29.8 in West 1.4 mph 3.2 mph 68 % 0 in open2300-1.11 W/m2
11:10 84 °F 71.1 °F 29.8 in WSW 1.4 mph 5.0 mph 65 % 0 in open2300-1.11 W/m2
12:11 80.8 °F 69.6 °F 29.8 in Calm   2.6 mph 69 % 0 in open2300-1.11 W/m2
13:10 78.6 °F 68.7 °F 29.8 in NE 14.3 mph 14.3 mph 72 % 0 in open2300-1.11 W/m2
14:10 80.1 °F 69.1 °F 29.7 in Calm   4.0 mph 69 % 0 in open2300-1.11 W/m2
15:10 85.8 °F 70.9 °F 29.7 in ESE 1.1 mph 5.5 mph 61 % 0 in open2300-1.11 W/m2
16:10 85.5 °F 70 °F 29.7 in Calm   1.4 mph 60 % 0 in open2300-1.11 W/m2
17:10 82.9 °F 69.4 °F 29.7 in North 1.1 mph 1.1 mph 64 % 0 in open2300-1.11 W/m2
18:10 83.8 °F 70.3 °F 29.7 in Calm   4.0 mph 64 % 0 in open2300-1.11 W/m2
19:10 81.3 °F 69.3 °F 29.7 in Calm   1.1 mph 67 % 0 in open2300-1.11 W/m2
20:10 79.7 °F 69.1 °F 29.7 in Calm     70 % 0 in open2300-1.11 W/m2
21:10 78.4 °F 68.2 °F 29.7 in Calm   2.6 mph 71 % 0 in open2300-1.11 W/m2
22:10 78.4 °F 66.9 °F 29.7 in East 6.1 mph 6.1 mph 68 % 0 in open2300-1.11 W/m2
23:10 77.7 °F 67.3 °F 29.7 in SE 4.0 mph 4.0 mph 70 % 0 in open2300-1.11 W/m2
Observations météo à CASSIS
WU-History script by Weather Underground - 1 mb